Time;durP1;ratioP1;P1;durP2;ratioP2;P2;SDS_P1;SDS_P2;PMS_P1;PMS_P2;Temp;Humidity;BMP_temperature;BMP_pressure;BME280_temperature;BME280_humidity;BME280_pressure;Samples;Min_cycle;Max_cycle;Signal;HPM_P1;HPM_P2
2023/01/24 00:01:12;;;;;;;23.77;19.43;;;6.00;99.90;;;;;;4991925;28;20178;-51
2023/01/24 00:03:37;;;;;;;24.03;18.97;;;6.10;99.90;;;;;;4991367;28;20197;-54
2023/01/24 00:06:03;;;;;;;24.40;19.60;;;6.10;99.90;;;;;;4992097;28;20191;-52
2023/01/24 00:08:29;;;;;;;25.33;20.13;;;6.10;99.90;;;;;;4991394;28;20209;-52
2023/01/24 00:10:59;;;;;;;27.83;19.93;;;6.10;99.90;;;;;;4992020;28;20543;-51
2023/01/24 00:13:25;;;;;;;22.53;17.80;;;6.10;99.90;;;;;;4991769;28;20189;-54
2023/01/24 00:15:51;;;;;;;25.03;19.40;;;6.10;99.90;;;;;;4991547;28;20548;-53
2023/01/24 00:18:16;;;;;;;26.73;20.27;;;6.10;99.90;;;;;;4991491;28;20179;-52
2023/01/24 00:20:42;;;;;;;22.33;18.47;;;6.10;99.90;;;;;;4991899;28;20188;-52
2023/01/24 00:23:07;;;;;;;23.43;19.23;;;6.10;99.90;;;;;;4991779;28;20205;-50
2023/01/24 00:25:33;;;;;;;25.30;19.63;;;6.00;99.90;;;;;;4991226;28;20427;-53
2023/01/24 00:27:58;;;;;;;21.93;17.27;;;6.00;99.90;;;;;;4991653;28;20232;-50
2023/01/24 00:30:24;;;;;;;20.20;16.73;;;5.90;99.90;;;;;;4991210;28;20189;-51
2023/01/24 00:32:49;;;;;;;18.60;13.57;;;5.90;99.90;;;;;;4991568;28;20203;-55
2023/01/24 00:35:15;;;;;;;16.23;12.43;;;5.90;99.90;;;;;;4991432;28;20166;-54
2023/01/24 00:37:41;;;;;;;14.87;12.70;;;5.90;99.90;;;;;;4991057;28;20195;-50
2023/01/24 00:40:07;;;;;;;10.27;8.60;;;5.90;99.90;;;;;;4995950;28;20180;-52
2023/01/24 00:42:33;;;;;;;7.77;6.77;;;6.00;99.90;;;;;;4992588;28;20204;-52
2023/01/24 00:44:59;;;;;;;8.13;6.63;;;6.10;99.90;;;;;;4998614;28;20193;-55
2023/01/24 00:47:25;;;;;;;7.20;6.03;;;6.10;99.90;;;;;;4985458;28;20189;-55
2023/01/24 00:49:50;;;;;;;7.43;6.60;;;6.10;99.90;;;;;;4994149;28;20185;-52
2023/01/24 00:52:16;;;;;;;7.10;5.50;;;6.10;99.90;;;;;;4988268;28;20181;-53
2023/01/24 00:54:41;;;;;;;5.80;5.03;;;6.20;99.90;;;;;;4993356;28;20204;-55
2023/01/24 00:57:07;;;;;;;5.20;4.40;;;6.20;99.90;;;;;;4995099;28;20215;-54
2023/01/24 00:59:32;;;;;;;6.33;4.63;;;6.10;99.90;;;;;;4989599;28;20241;-52
2023/01/24 01:01:58;;;;;;;4.63;4.00;;;6.10;99.90;;;;;;4989122;28;20189;-52
2023/01/24 01:04:23;;;;;;;4.63;3.93;;;6.20;99.90;;;;;;4990361;28;20220;-55
2023/01/24 01:06:49;;;;;;;4.43;3.87;;;6.20;99.90;;;;;;4992885;28;20185;-55
2023/01/24 01:09:14;;;;;;;3.90;3.50;;;6.20;99.90;;;;;;4992142;28;20211;-52
2023/01/24 01:11:41;;;;;;;4.60;3.87;;;6.30;99.90;;;;;;4973913;28;20232;-50
2023/01/24 01:14:08;;;;;;;4.73;3.90;;;6.30;99.90;;;;;;4983031;28;20621;-51
2023/01/24 01:16:37;;;;;;;5.17;4.00;;;6.40;99.90;;;;;;4978508;28;20191;-51
2023/01/24 01:19:04;;;;;;;5.10;3.90;;;6.40;99.90;;;;;;4992616;28;20280;-52
2023/01/24 01:21:30;;;;;;;4.07;3.60;;;6.40;99.90;;;;;;4988579;28;20228;-52
2023/01/24 01:23:55;;;;;;;4.20;3.80;;;6.40;99.90;;;;;;4975703;28;20281;-52
2023/01/24 01:26:21;;;;;;;4.03;3.63;;;6.40;99.90;;;;;;4989956;28;20181;-51
2023/01/24 01:28:48;;;;;;;4.30;3.90;;;6.40;99.90;;;;;;4983427;28;20220;-55
2023/01/24 01:31:14;;;;;;;4.03;3.63;;;6.40;99.90;;;;;;4994632;28;20165;-55
2023/01/24 01:33:40;;;;;;;4.67;3.87;;;6.40;99.90;;;;;;4993546;28;20205;-55
2023/01/24 01:36:06;;;;;;;4.13;3.70;;;6.40;99.90;;;;;;4994403;28;20184;-55
2023/01/24 01:38:32;;;;;;;4.37;3.57;;;6.40;99.90;;;;;;4992666;28;20180;-52
2023/01/24 01:40:58;;;;;;;3.83;3.43;;;6.40;99.90;;;;;;4994419;28;20181;-53
2023/01/24 01:43:26;;;;;;;4.67;3.50;;;6.50;99.90;;;;;;4993786;28;20203;-52
2023/01/24 01:45:59;;;;;;;4.23;3.83;;;6.50;99.90;;;;;;4994092;28;20181;-52
2023/01/24 01:48:39;;;;;;;3.83;3.43;;;6.50;99.90;;;;;;4993574;28;20200;-52
2023/01/24 01:51:22;;;;;;;4.00;3.40;;;6.50;99.90;;;;;;4994141;28;20251;-51
2023/01/24 01:54:11;;;;;;;4.33;3.93;;;6.50;99.90;;;;;;4991930;28;20197;-52
2023/01/24 01:56:45;;;;;;;4.23;3.57;;;6.60;99.90;;;;;;4993704;28;20197;-52
2023/01/24 01:59:22;;;;;;;4.27;3.70;;;6.60;99.90;;;;;;4988194;28;20496;-52
2023/01/24 02:01:49;;;;;;;4.17;3.33;;;6.60;99.90;;;;;;4988192;28;20591;-52
2023/01/24 02:04:20;;;;;;;3.80;3.47;;;6.60;99.90;;;;;;4993861;28;20197;-52
2023/01/24 02:07:04;;;;;;;4.50;3.53;;;6.70;99.90;;;;;;4993492;28;20173;-55
2023/01/24 02:09:36;;;;;;;4.60;3.73;;;6.70;99.90;;;;;;4994003;28;20681;-57
2023/01/24 02:12:06;;;;;;;4.63;4.13;;;6.60;99.90;;;;;;4993309;28;20555;-52
2023/01/24 02:17:21;;;;;;;5.90;5.10;;;6.70;99.90;;;;;;4993590;28;20235;-54
2023/01/24 02:19:58;;;;;;;7.30;5.93;;;6.60;99.90;;;;;;4989614;28;20216;-54
2023/01/24 02:22:48;;;;;;;14.57;11.40;;;6.60;99.90;;;;;;4993589;28;20642;-55
2023/01/24 02:25:50;;;;;;;18.50;15.40;;;6.60;99.90;;;;;;4993282;28;20228;-53
2023/01/24 02:28:16;;;;;;;18.20;13.97;;;6.40;99.90;;;;;;4913412;29;20215;-53
2023/01/24 02:30:42;;;;;;;18.47;14.20;;;6.30;99.90;;;;;;4913067;29;20173;-53
2023/01/24 02:33:17;;;;;;;22.60;15.90;;;6.30;99.90;;;;;;4913091;29;20314;-55
2023/01/24 02:35:42;;;;;;;19.87;14.93;;;6.40;99.90;;;;;;4913523;29;20214;-55
2023/01/24 02:38:20;;;;;;;17.47;13.97;;;6.40;99.90;;;;;;4914226;29;20223;-54
2023/01/24 02:40:49;;;;;;;17.07;13.47;;;6.40;99.90;;;;;;4913528;29;20228;-52
2023/01/24 02:43:17;;;;;;;16.93;14.10;;;6.50;99.90;;;;;;4913891;29;20218;-53
2023/01/24 02:45:43;;;;;;;16.73;13.70;;;6.50;99.90;;;;;;4913205;29;20187;-54
2023/01/24 02:48:08;;;;;;;15.27;11.77;;;6.50;99.90;;;;;;4913304;29;20689;-55
2023/01/24 02:53:29;;;;;;;12.50;10.33;;;6.50;99.90;;;;;;4912824;29;20228;-55
2023/01/24 02:53:30;;;;;;;8.63;6.87;;;6.60;99.90;;;;;;4912927;29;20210;-55
2023/01/24 02:58:53;;;;;;;8.73;6.87;;;6.60;99.90;;;;;;4894659;29;20219;-51
2023/01/24 03:01:21;;;;;;;7.10;5.93;;;6.60;99.90;;;;;;4893086;29;20200;-53
2023/01/24 03:03:47;;;;;;;6.60;5.50;;;6.70;99.90;;;;;;4904638;28;20212;-49
2023/01/24 03:06:14;;;;;;;6.20;5.07;;;6.70;99.90;;;;;;4970998;28;20553;-56
2023/01/24 03:08:40;;;;;;;6.07;5.20;;;6.60;99.90;;;;;;4970346;28;20309;-54
2023/01/24 03:11:07;;;;;;;6.23;5.30;;;6.70;99.90;;;;;;4971087;28;20189;-55
2023/01/24 03:35:29;;;;;;;11.67;9.83;;;6.30;99.90;;;;;;4977418;28;20546;-56
2023/01/24 03:40:39;;;;;;;13.80;11.33;;;6.30;99.90;;;;;;4991519;28;20267;-50
2023/01/24 03:43:05;;;;;;;13.17;10.80;;;6.30;99.90;;;;;;4990968;28;20236;-52
2023/01/24 03:45:33;;;;;;;12.83;10.80;;;6.40;99.90;;;;;;4991067;28;20185;-50
2023/01/24 03:48:03;;;;;;;13.77;11.67;;;6.30;99.90;;;;;;4991755;28;20204;-53
2023/01/24 03:53:18;;;;;;;12.87;10.80;;;6.30;99.90;;;;;;4991676;28;20199;-55
2023/01/24 03:55:44;;;;;;;15.40;10.57;;;6.30;99.90;;;;;;4991996;28;20177;-55
2023/01/24 03:58:10;;;;;;;16.03;12.90;;;6.30;99.90;;;;;;4991845;28;20177;-54
2023/01/24 04:00:37;;;;;;;13.87;11.30;;;6.20;99.90;;;;;;4991193;28;20181;-52
2023/01/24 04:03:03;;;;;;;14.43;11.43;;;6.20;99.90;;;;;;4992130;28;20673;-55
2023/01/24 04:05:29;;;;;;;18.40;15.27;;;6.20;99.90;;;;;;4991392;28;20193;-54
2023/01/24 04:07:55;;;;;;;16.27;13.83;;;6.20;99.90;;;;;;4991961;28;20586;-53
2023/01/24 04:10:22;;;;;;;21.27;15.67;;;6.20;99.90;;;;;;4991390;28;20181;-53
2023/01/24 04:12:48;;;;;;;17.97;14.50;;;6.20;99.90;;;;;;4994970;28;20189;-54
2023/01/24 04:15:23;;;;;;;16.30;13.43;;;6.20;99.90;;;;;;4995935;28;20184;-54
2023/01/24 04:17:49;;;;;;;18.27;14.43;;;6.10;99.90;;;;;;4996635;28;20204;-51
2023/01/24 04:20:15;;;;;;;16.80;13.77;;;6.20;99.90;;;;;;4997177;28;20219;-52
2023/01/24 04:22:41;;;;;;;16.63;13.73;;;6.10;99.90;;;;;;4997279;28;20212;-52
2023/01/24 04:25:07;;;;;;;15.57;12.30;;;6.10;99.90;;;;;;4997981;28;20176;-51
2023/01/24 04:27:33;;;;;;;20.60;15.93;;;6.10;99.90;;;;;;4990384;28;20185;-55
2023/01/24 04:29:59;;;;;;;21.13;17.23;;;6.10;99.90;;;;;;4993938;28;20196;-50
2023/01/24 04:32:24;;;;;;;20.77;15.93;;;6.10;99.90;;;;;;4984158;28;20231;-53
2023/01/24 04:34:50;;;;;;;19.97;15.93;;;6.20;99.90;;;;;;4997505;28;20169;-52
2023/01/24 04:37:15;;;;;;;21.10;16.07;;;6.20;99.90;;;;;;4998148;28;20236;-52
2023/01/24 04:39:41;;;;;;;21.77;17.43;;;6.20;99.90;;;;;;4997756;28;20280;-53
2023/01/24 04:42:06;;;;;;;23.37;18.47;;;6.20;99.90;;;;;;4997702;28;20169;-53
2023/01/24 04:44:32;;;;;;;21.27;17.00;;;6.20;99.90;;;;;;4996925;28;20196;-53
2023/01/24 04:46:59;;;;;;;19.63;15.53;;;6.30;99.90;;;;;;4997975;28;20172;-52
2023/01/24 04:49:25;;;;;;;20.73;16.40;;;6.30;99.90;;;;;;4997779;28;20188;-52
2023/01/24 04:51:50;;;;;;;20.47;16.90;;;6.30;99.90;;;;;;4997376;28;20172;-52
2023/01/24 04:54:17;;;;;;;20.73;16.57;;;6.30;99.90;;;;;;4984775;28;20217;-56
2023/01/24 04:56:43;;;;;;;19.47;15.60;;;6.40;99.90;;;;;;4990091;28;20173;-54
2023/01/24 04:59:11;;;;;;;19.10;15.30;;;6.30;99.90;;;;;;4990066;28;20178;-55
2023/01/24 05:01:36;;;;;;;21.63;17.27;;;6.30;99.90;;;;;;4979529;28;20173;-54
2023/01/24 05:04:02;;;;;;;22.97;17.50;;;6.30;99.90;;;;;;4989694;28;20207;-54
2023/01/24 05:06:29;;;;;;;21.50;18.13;;;6.20;99.90;;;;;;4992625;28;20174;-55
2023/01/24 05:08:56;;;;;;;19.33;15.83;;;6.30;99.90;;;;;;4977066;28;20554;-53
2023/01/24 05:11:22;;;;;;;17.43;14.10;;;6.30;99.90;;;;;;4980281;28;20204;-55
2023/01/24 05:13:48;;;;;;;17.70;13.50;;;6.30;99.90;;;;;;4987552;28;20193;-53
2023/01/24 05:16:14;;;;;;;20.27;16.27;;;6.30;99.90;;;;;;4979162;28;20252;-55
2023/01/24 05:18:39;;;;;;;22.77;17.87;;;6.30;99.90;;;;;;5008660;28;20265;-55
2023/01/24 05:21:13;;;;;;;23.60;17.33;;;6.30;99.90;;;;;;4996653;28;20219;-54
2023/01/24 05:23:38;;;;;;;19.27;14.57;;;6.20;99.90;;;;;;4977945;28;20284;-53
2023/01/24 05:26:04;;;;;;;18.73;14.70;;;6.20;99.90;;;;;;4973833;28;20687;-54
2023/01/24 05:28:31;;;;;;;17.40;14.20;;;6.20;99.90;;;;;;4990148;28;20213;-55
2023/01/24 05:31:01;;;;;;;20.83;16.00;;;6.20;99.90;;;;;;4982339;28;20216;-53
2023/01/24 05:33:27;;;;;;;22.97;15.97;;;7.40;99.90;;;;;;4993446;28;20213;-53
2023/01/24 05:36:07;;;;;;;20.27;16.40;;;6.10;99.90;;;;;;4973713;28;20265;-54
2023/01/24 05:38:33;;;;;;;19.60;15.50;;;6.00;99.90;;;;;;4992090;28;20251;-52
2023/01/24 05:41:00;;;;;;;18.83;14.47;;;6.10;99.90;;;;;;4977090;28;20194;-52
2023/01/24 05:43:26;;;;;;;21.10;15.80;;;6.10;99.90;;;;;;4976042;28;20221;-55
2023/01/24 05:46:12;;;;;;;18.70;15.60;;;6.00;99.90;;;;;;4975085;28;20496;-52
2023/01/24 05:48:38;;;;;;;18.50;15.70;;;6.10;99.90;;;;;;4993892;28;20213;-54
2023/01/24 05:51:08;;;;;;;19.73;15.33;;;6.10;99.90;;;;;;4984666;28;20177;-53
2023/01/24 05:53:37;;;;;;;21.00;14.90;;;6.10;99.90;;;;;;4992375;28;20197;-49
2023/01/24 05:56:05;;;;;;;18.80;15.40;;;6.20;99.90;;;;;;4993850;28;20173;-51
2023/01/24 05:58:34;;;;;;;18.80;15.47;;;6.20;99.90;;;;;;4992011;28;20282;-52
2023/01/24 06:01:00;;;;;;;23.67;17.83;;;6.20;99.90;;;;;;4994189;28;20669;-54
2023/01/24 06:03:26;;;;;;;22.53;17.20;;;6.20;99.90;;;;;;4993825;28;20205;-53
2023/01/24 06:05:53;;;;;;;21.47;17.73;;;6.20;99.90;;;;;;4980453;28;20666;-52
2023/01/24 06:08:20;;;;;;;20.97;17.27;;;6.20;99.90;;;;;;5004943;28;20212;-51
2023/01/24 06:10:46;;;;;;;22.47;17.53;;;6.20;99.90;;;;;;4992165;28;20686;-52
2023/01/24 06:13:12;;;;;;;22.83;18.70;;;6.20;99.90;;;;;;4993761;28;20279;-48
2023/01/24 06:15:39;;;;;;;21.27;16.93;;;6.20;99.90;;;;;;4987112;28;20181;-55
2023/01/24 06:18:05;;;;;;;22.20;18.00;;;6.20;99.90;;;;;;4993140;28;20332;-55
2023/01/24 06:20:32;;;;;;;23.13;18.60;;;6.20;99.90;;;;;;4985901;28;20574;-52
2023/01/24 06:23:07;;;;;;;23.93;19.27;;;6.30;99.90;;;;;;4990456;28;20201;-52
2023/01/24 06:25:33;;;;;;;21.33;16.83;;;6.30;99.90;;;;;;4992392;28;20650;-52
2023/01/24 06:28:00;;;;;;;22.73;18.50;;;6.30;99.90;;;;;;4990118;28;20197;-50
2023/01/24 06:30:26;;;;;;;22.60;17.40;;;6.30;99.90;;;;;;4983541;28;20185;-51
2023/01/24 06:33:10;;;;;;;22.97;17.60;;;6.30;99.90;;;;;;4992502;28;20213;-51
2023/01/24 06:36:00;;;;;;;21.53;18.03;;;6.30;99.90;;;;;;5114773;22;20550;-50
2023/01/24 06:38:26;;;;;;;21.50;17.03;;;6.30;99.90;;;;;;5009955;28;20195;-49
2023/01/24 06:40:55;;;;;;;22.13;17.87;;;6.30;99.90;;;;;;5007635;28;20207;-50
2023/01/24 06:43:21;;;;;;;23.63;17.77;;;6.30;99.90;;;;;;5011972;28;20184;-50
2023/01/24 06:45:47;;;;;;;24.40;18.33;;;6.30;99.90;;;;;;5010383;28;20700;-50
2023/01/24 06:48:14;;;;;;;24.50;19.10;;;6.40;99.90;;;;;;5003073;28;20206;-52
2023/01/24 06:50:40;;;;;;;23.23;18.17;;;6.40;99.90;;;;;;5012101;28;20212;-49
2023/01/24 06:53:07;;;;;;;24.10;18.43;;;6.40;99.90;;;;;;5012595;28;20199;-50
2023/01/24 06:55:33;;;;;;;23.13;16.47;;;6.40;99.90;;;;;;5008310;28;20682;-53
2023/01/24 06:58:00;;;;;;;20.50;16.43;;;6.40;99.90;;;;;;5012331;28;20238;-49
2023/01/24 07:00:29;;;;;;;18.37;14.93;;;6.40;99.90;;;;;;5012438;28;20695;-51
2023/01/24 07:03:05;;;;;;;18.23;14.97;;;6.40;99.90;;;;;;5012472;28;20172;-49
2023/01/24 07:05:32;;;;;;;18.47;14.87;;;6.40;99.90;;;;;;5012050;28;20254;-49
2023/01/24 07:07:58;;;;;;;19.80;15.97;;;6.40;99.90;;;;;;5012280;28;20195;-51
2023/01/24 07:10:23;;;;;;;22.20;17.47;;;6.40;99.90;;;;;;5012329;28;20173;-50
2023/01/24 07:12:49;;;;;;;23.87;18.00;;;6.50;99.90;;;;;;5009015;28;20184;-50
2023/01/24 07:15:15;;;;;;;19.53;16.60;;;6.40;99.90;;;;;;5011691;28;20291;-49
2023/01/24 07:17:40;;;;;;;19.60;15.70;;;6.50;99.90;;;;;;5012095;28;20246;-52
2023/01/24 07:20:07;;;;;;;18.97;15.43;;;6.40;99.90;;;;;;5012356;28;20212;-49
2023/01/24 07:22:36;;;;;;;20.20;15.10;;;6.40;99.90;;;;;;5012069;28;20646;-49
2023/01/24 07:25:02;;;;;;;23.17;18.20;;;6.50;99.90;;;;;;5011776;28;20253;-52
2023/01/24 07:27:28;;;;;;;19.40;15.73;;;6.50;99.90;;;;;;5011824;28;20196;-49
2023/01/24 07:29:53;;;;;;;20.90;16.40;;;5.40;99.90;;;;;;5011931;28;20618;-50
2023/01/24 07:32:19;;;;;;;20.40;15.70;;;6.50;99.90;;;;;;5012079;28;20227;-52
2023/01/24 07:34:44;;;;;;;21.23;15.10;;;6.50;99.90;;;;;;5011629;28;20306;-49
2023/01/24 07:37:10;;;;;;;20.10;15.53;;;6.50;99.90;;;;;;5011622;28;20221;-49
2023/01/24 07:39:35;;;;;;;18.90;15.73;;;6.50;99.90;;;;;;5012020;28;20286;-51
2023/01/24 07:42:01;;;;;;;19.30;15.20;;;6.60;99.90;;;;;;5011759;28;20203;-50
2023/01/24 07:44:27;;;;;;;17.93;14.53;;;6.40;99.90;;;;;;5011618;28;20234;-49
2023/01/24 07:46:52;;;;;;;17.70;15.03;;;6.40;99.90;;;;;;5008929;28;20200;-49
2023/01/24 07:49:18;;;;;;;17.87;14.47;;;6.50;99.90;;;;;;5011575;28;20193;-50
2023/01/24 07:51:45;;;;;;;26.07;21.27;;;6.50;99.90;;;;;;5011734;28;20653;-49
2023/01/24 07:54:11;;;;;;;29.27;23.27;;;6.50;99.90;;;;;;5011465;28;20203;-50
2023/01/24 07:56:36;;;;;;;25.47;20.57;;;6.50;99.90;;;;;;5011360;28;20582;-51
2023/01/24 07:59:02;;;;;;;24.83;19.40;;;6.50;99.90;;;;;;5011696;28;20252;-49
2023/01/24 08:01:27;;;;;;;15.37;12.67;;;6.60;99.90;;;;;;5011542;28;20176;-49
2023/01/24 08:03:57;;;;;;;14.30;11.50;;;6.60;99.90;;;;;;5011259;28;20188;-49
2023/01/24 08:06:23;;;;;;;12.53;9.77;;;6.60;99.90;;;;;;5011559;28;20222;-49
2023/01/24 08:08:48;;;;;;;12.07;10.33;;;6.60;99.90;;;;;;5011363;28;20200;-49
2023/01/24 08:11:17;;;;;;;9.67;8.27;;;6.70;99.90;;;;;;5011502;28;20263;-50
2023/01/24 08:13:43;;;;;;;13.37;11.50;;;6.70;99.90;;;;;;5011195;28;20161;-51
2023/01/24 08:16:09;;;;;;;13.23;11.13;;;6.70;99.90;;;;;;5011713;28;20531;-49
2023/01/24 08:18:36;;;;;;;11.23;9.17;;;6.70;99.90;;;;;;5011294;28;20168;-51
2023/01/24 08:21:03;;;;;;;10.50;8.77;;;6.80;99.90;;;;;;5011555;28;20180;-51
2023/01/24 08:23:29;;;;;;;9.93;8.13;;;6.90;99.90;;;;;;5011277;28;20172;-51
2023/01/24 08:25:57;;;;;;;10.50;9.23;;;6.80;99.90;;;;;;5011012;28;20200;-51
2023/01/24 08:28:23;;;;;;;11.60;9.73;;;6.90;99.90;;;;;;5011277;28;20693;-51
2023/01/24 08:30:48;;;;;;;12.73;11.20;;;6.90;99.90;;;;;;5011181;28;20242;-51
2023/01/24 08:33:18;;;;;;;13.00;11.40;;;6.90;99.90;;;;;;5011224;28;20211;-51
2023/01/24 08:35:45;;;;;;;15.97;13.27;;;6.90;99.90;;;;;;5010847;28;20689;-49
2023/01/24 08:38:11;;;;;;;15.87;12.53;;;6.90;99.90;;;;;;5011060;28;20711;-51
2023/01/24 08:40:37;;;;;;;16.17;12.87;;;6.80;99.90;;;;;;5011274;28;20188;-50
2023/01/24 08:43:02;;;;;;;16.43;12.67;;;6.70;99.90;;;;;;5011165;28;20172;-49
2023/01/24 08:45:28;;;;;;;14.87;12.33;;;6.70;99.90;;;;;;5011008;28;20180;-50
2023/01/24 08:47:54;;;;;;;15.20;11.47;;;6.80;99.90;;;;;;5010992;28;20793;-50
2023/01/24 08:50:21;;;;;;;10.10;8.83;;;6.80;99.90;;;;;;5011112;28;20173;-50
2023/01/24 08:52:47;;;;;;;10.47;8.57;;;6.90;99.90;;;;;;5011120;28;20169;-54
2023/01/24 08:55:13;;;;;;;8.90;7.47;;;6.90;99.90;;;;;;5016011;28;20654;-51
2023/01/24 08:57:38;;;;;;;9.90;8.33;;;6.90;99.90;;;;;;5030403;28;20164;-52
2023/01/24 09:00:04;;;;;;;10.83;9.03;;;6.90;99.90;;;;;;5033517;28;20198;-50
2023/01/24 09:02:32;;;;;;;7.73;6.37;;;7.00;99.90;;;;;;5033240;28;20180;-50
2023/01/24 09:04:58;;;;;;;6.90;5.77;;;7.10;99.90;;;;;;5034212;28;20625;-50
2023/01/24 09:07:24;;;;;;;5.73;5.03;;;7.20;99.90;;;;;;5034307;28;20274;-49
2023/01/24 09:09:49;;;;;;;5.37;4.87;;;7.30;99.90;;;;;;5034241;28;20207;-49
2023/01/24 09:12:15;;;;;;;7.53;6.50;;;7.40;99.90;;;;;;5034360;28;20172;-49
2023/01/24 09:14:40;;;;;;;9.80;7.90;;;7.40;99.90;;;;;;5034046;28;20226;-49
2023/01/24 09:17:06;;;;;;;7.33;6.50;;;7.50;99.90;;;;;;5033950;28;20534;-51
2023/01/24 09:19:31;;;;;;;6.73;6.03;;;7.60;99.90;;;;;;5034299;28;20175;-51
2023/01/24 09:21:57;;;;;;;6.63;5.90;;;7.70;99.90;;;;;;5034122;28;20234;-49
2023/01/24 09:24:23;;;;;;;6.33;5.10;;;7.90;99.90;;;;;;5033669;28;20202;-49
2023/01/24 09:26:49;;;;;;;7.03;6.00;;;8.00;99.90;;;;;;5033927;28;20536;-50
2023/01/24 09:29:14;;;;;;;8.17;7.27;;;8.20;99.90;;;;;;5033920;28;20199;-49
2023/01/24 09:31:40;;;;;;;8.57;7.60;;;8.30;99.90;;;;;;5033780;28;20179;-49
2023/01/24 09:34:06;;;;;;;7.80;6.77;;;8.40;99.90;;;;;;5033730;28;20168;-49
2023/01/24 09:36:31;;;;;;;6.00;5.37;;;8.60;99.90;;;;;;5033715;28;20207;-50
2023/01/24 09:38:57;;;;;;;6.20;5.27;;;8.70;99.90;;;;;;5033927;28;20183;-53
2023/01/24 09:41:44;;;;;;;6.03;5.03;;;8.80;99.90;;;;;;5033917;28;20230;-49
2023/01/24 09:44:25;;;;;;;6.37;5.60;;;8.90;99.90;;;;;;5033538;28;20175;-51
2023/01/24 09:46:53;;;;;;;7.87;6.47;;;9.00;99.90;;;;;;5033668;28;20271;-49
2023/01/24 09:49:30;;;;;;;13.70;10.63;;;9.00;99.90;;;;;;5033485;28;20238;-50
2023/01/24 09:51:56;;;;;;;14.20;12.30;;;8.90;99.90;;;;;;5032406;28;20211;-50
2023/01/24 09:54:29;;;;;;;13.30;10.70;;;8.90;99.90;;;;;;5032154;28;20223;-49
2023/01/24 09:56:56;;;;;;;9.50;7.70;;;8.90;99.90;;;;;;5033413;28;20200;-49
2023/01/24 09:59:35;;;;;;;8.13;7.33;;;9.00;99.90;;;;;;5033425;28;20190;-49
2023/01/24 10:02:02;;;;;;;7.17;6.47;;;9.10;99.90;;;;;;5033527;28;20179;-50
2023/01/24 10:04:35;;;;;;;6.50;5.80;;;9.70;99.90;;;;;;5033005;28;20537;-49
2023/01/24 10:07:17;;;;;;;6.47;5.80;;;10.50;99.90;;;;;;5033285;28;20270;-50
2023/01/24 10:10:10;;;;;;;7.33;6.63;;;12.30;99.90;;;;;;5032736;28;20207;-50
2023/01/24 10:13:13;;;;;;;5.43;4.93;;;12.50;99.90;;;;;;5033176;28;20246;-49
2023/01/24 10:16:03;;;;;;;5.77;5.17;;;12.90;99.90;;;;;;5031572;28;20242;-50
2023/01/24 10:18:51;;;;;;;5.80;5.10;;;13.10;99.90;;;;;;5033028;28;20177;-50
2023/01/24 10:21:45;;;;;;;5.80;4.57;;;13.10;99.50;;;;;;5033063;28;20784;-49
2023/01/24 10:24:16;;;;;;;4.57;4.10;;;13.10;99.60;;;;;;5032737;28;20172;-50
2023/01/24 10:26:50;;;;;;;5.10;4.60;;;13.00;99.70;;;;;;5032869;28;20193;-49
2023/01/24 10:29:30;;;;;;;5.53;5.03;;;12.90;99.00;;;;;;5032672;28;20208;-50
2023/01/24 10:32:02;;;;;;;5.13;4.63;;;12.90;98.70;;;;;;5032869;28;20184;-49
2023/01/24 10:34:37;;;;;;;5.00;4.50;;;12.70;99.00;;;;;;5032519;28;20176;-50
2023/01/24 10:37:09;;;;;;;6.70;4.83;;;12.90;99.10;;;;;;5032519;28;20214;-49
2023/01/24 10:39:35;;;;;;;5.97;4.40;;;12.50;98.60;;;;;;5032830;28;20206;-50
2023/01/24 10:42:11;;;;;;;4.50;4.10;;;12.50;99.00;;;;;;5032701;28;20510;-52
2023/01/24 10:44:39;;;;;;;5.00;4.50;;;12.50;99.20;;;;;;5032382;28;20168;-51
2023/01/24 10:47:29;;;;;;;5.57;4.90;;;12.40;99.00;;;;;;5032301;28;20193;-51
2023/01/24 10:50:05;;;;;;;5.33;4.83;;;12.40;99.40;;;;;;5032443;28;20209;-51
2023/01/24 10:52:31;;;;;;;6.10;5.50;;;12.80;99.50;;;;;;5032551;28;20177;-50
2023/01/24 10:55:01;;;;;;;6.70;5.93;;;13.10;98.80;;;;;;5032132;28;20253;-51
2023/01/24 10:57:26;;;;;;;10.03;8.17;;;13.50;98.00;;;;;;5032142;28;20221;-50
2023/01/24 10:59:52;;;;;;;5.40;4.90;;;14.10;98.00;;;;;;5032262;28;20618;-50
2023/01/24 11:02:23;;;;;;;5.07;4.57;;;15.30;97.20;;;;;;5032265;28;20232;-51
2023/01/24 11:05:00;;;;;;;5.83;4.80;;;16.50;95.30;;;;;;5031968;28;20177;-48
2023/01/24 11:07:40;;;;;;;5.60;5.10;;;16.80;94.00;;;;;;5031994;28;20200;-50
2023/01/24 11:10:22;;;;;;;5.37;4.87;;;17.60;92.00;;;;;;5032059;28;20186;-48
2023/01/24 11:12:52;;;;;;;4.72;4.28;;;18.90;91.80;;;;;;5012788;28;20179;-52
2023/01/24 11:15:30;;;;;;;4.80;4.40;;;20.00;87.50;;;;;;5011685;28;20180;-50
2023/01/24 11:18:04;;;;;;;5.10;4.60;;;20.00;83.70;;;;;;5012178;28;20173;-50
2023/01/24 11:20:33;;;;;;;4.93;4.32;;;19.80;80.30;;;;;;5012248;28;20169;-50
2023/01/24 11:23:21;;;;;;;5.03;4.63;;;19.50;83.20;;;;;;5009933;28;20184;-50
2023/01/24 11:26:01;;;;;;;5.07;4.55;;;20.00;80.30;;;;;;5011706;28;20223;-50
2023/01/24 11:28:37;;;;;;;5.30;4.35;;;19.40;78.10;;;;;;5011946;28;20549;-50
2023/01/24 11:31:07;;;;;;;5.40;4.90;;;18.10;82.10;;;;;;5012036;28;20223;-50
2023/01/24 11:34:01;;;;;;;5.10;4.70;;;18.20;82.80;;;;;;5011903;28;20174;-52
2023/01/24 11:37:00;;;;;;;4.97;4.57;;;18.70;86.20;;;;;;5011551;28;20204;-51
2023/01/24 11:39:57;;;;;;;5.25;4.80;;;20.30;82.20;;;;;;5011853;28;20204;-50
2023/01/24 11:42:33;;;;;;;5.22;4.72;;;20.70;77.90;;;;;;5011806;28;20180;-51
2023/01/24 11:45:01;;;;;;;5.03;4.63;;;20.70;77.80;;;;;;5011388;28;20177;-50
2023/01/24 11:47:44;;;;;;;5.25;4.75;;;21.20;76.80;;;;;;5011589;28;20542;-51
2023/01/24 11:50:20;;;;;;;5.47;4.97;;;22.10;75.70;;;;;;5011492;28;20180;-49
2023/01/24 11:53:13;;;;;;;6.47;5.97;;;23.50;73.90;;;;;;5011739;28;20160;-51
2023/01/24 11:56:00;;;;;;;5.05;4.60;;;24.50;69.40;;;;;;5011344;28;20247;-51
2023/01/24 11:58:52;;;;;;;5.28;4.80;;;25.30;67.30;;;;;;5011537;28;20592;-49
2023/01/24 12:01:56;;;;;;;4.75;4.35;;;26.20;62.20;;;;;;5011593;28;20546;-53
2023/01/24 12:04:48;;;;;;;4.93;4.43;;;26.60;59.30;;;;;;4988943;28;20258;-51
2023/01/24 12:07:26;;;;;;;4.60;4.20;;;27.00;58.90;;;;;;4989289;28;20213;-51
2023/01/24 12:09:57;;;;;;;4.70;4.30;;;27.20;56.30;;;;;;4989397;28;20244;-49
2023/01/24 12:12:25;;;;;;;5.05;4.55;;;26.30;54.80;;;;;;4973193;28;20183;-51
2023/01/24 12:15:17;;;;;;;5.00;4.60;;;25.70;54.80;;;;;;4989018;28;20663;-49
2023/01/24 12:17:48;;;;;;;5.47;4.82;;;25.00;54.70;;;;;;4989171;28;20230;-49
2023/01/24 12:20:45;;;;;;;4.97;4.55;;;24.50;56.20;;;;;;4989281;28;20239;-49
2023/01/24 12:23:28;;;;;;;4.50;4.10;;;24.00;57.30;;;;;;4989330;28;20555;-50
2023/01/24 12:26:00;;;;;;;5.47;4.97;;;24.10;58.40;;;;;;4989166;28;20208;-49
2023/01/24 12:28:33;;;;;;;4.93;4.53;;;24.10;55.50;;;;;;4989106;28;20575;-49
2023/01/24 12:31:01;;;;;;;4.85;4.45;;;23.50;56.00;;;;;;4989359;28;20535;-52
2023/01/24 12:33:52;;;;;;;4.70;4.30;;;22.90;57.20;;;;;;4990865;28;20177;-52
2023/01/24 12:36:39;;;;;;;5.75;4.95;;;22.20;56.80;;;;;;5003123;22;20248;-54
2023/01/24 12:39:26;;;;;;;5.30;4.82;;;21.60;58.90;;;;;;4974443;28;20608;-51
2023/01/24 12:42:01;;;;;;;6.93;6.22;;;21.70;58.90;;;;;;4975703;28;20651;-51
2023/01/24 12:44:30;;;;;;;5.55;5.05;;;21.40;58.90;;;;;;4975383;28;20177;-53
2023/01/24 12:47:17;;;;;;;4.90;4.50;;;21.20;59.80;;;;;;4985256;28;20208;-54
2023/01/24 12:50:05;;;;;;;5.18;4.72;;;21.50;60.30;;;;;;4995170;28;20205;-55
2023/01/24 12:52:35;;;;;;;4.90;4.40;;;21.40;58.90;;;;;;4995447;28;20173;-53
2023/01/24 12:55:18;;;;;;;4.88;4.38;;;21.10;61.00;;;;;;4987634;28;20178;-55
2023/01/24 12:57:51;;;;;;;5.18;4.78;;;20.80;60.30;;;;;;4995471;28;20205;-55
2023/01/24 13:00:22;;;;;;;5.05;4.55;;;20.70;60.90;;;;;;4994181;28;20177;-53
2023/01/24 13:03:17;;;;;;;5.20;4.70;;;20.60;59.80;;;;;;4995086;28;20507;-52
2023/01/24 13:06:00;;;;;;;9.57;8.60;;;19.50;61.30;;;;;;4994837;28;20161;-53
2023/01/24 13:08:28;;;;;;;5.40;4.90;;;18.90;64.70;;;;;;4994949;28;20205;-55
2023/01/24 13:11:13;;;;;;;5.43;4.93;;;18.80;64.60;;;;;;4987785;28;20277;-52
2023/01/24 13:14:05;;;;;;;5.40;4.90;;;18.80;64.50;;;;;;4994577;28;20201;-55
2023/01/24 13:16:38;;;;;;;6.30;5.70;;;18.90;65.00;;;;;;4994704;28;20205;-53
2023/01/24 13:19:10;;;;;;;6.30;5.70;;;19.10;64.30;;;;;;4994985;28;20191;-56
2023/01/24 13:22:04;;;;;;;5.90;5.30;;;18.50;65.50;;;;;;4993580;28;20176;-52
2023/01/24 13:24:55;;;;;;;6.68;5.70;;;17.80;67.30;;;;;;4993265;28;20186;-52
2023/01/24 13:27:41;;;;;;;5.97;5.47;;;17.40;67.30;;;;;;4994636;28;20216;-55
2023/01/24 13:30:10;;;;;;;6.23;5.00;;;16.80;69.60;;;;;;4994783;28;20216;-56
2023/01/24 13:32:38;;;;;;;6.20;5.33;;;16.60;70.10;;;;;;4993856;28;20205;-55
2023/01/24 13:35:21;;;;;;;5.70;5.20;;;16.20;71.30;;;;;;4993335;28;20204;-52
2023/01/24 13:38:05;;;;;;;6.57;5.97;;;16.00;72.30;;;;;;4993637;28;20221;-53